Time;durP1;ratioP1;P1;durP2;ratioP2;P2;SDS_P1;SDS_P2;PMS_P1;PMS_P2;Temp;Humidity;BMP_temperature;BMP_pressure;BME280_temperature;BME280_humidity;BME280_pressure;Samples;Min_cycle;Max_cycle;Signal;HPM_P1;HPM_P2
2023/12/15 00:00:15;;;;;;;11.48;7.97;;;8.10;99.90;;;;;;5061122;28;20036;-88
2023/12/15 00:02:40;;;;;;;12.90;8.48;;;8.00;99.90;;;;;;5067137;28;20047;-90
2023/12/15 00:05:06;;;;;;;12.50;7.70;;;8.00;99.90;;;;;;5060142;28;20049;-88
2023/12/15 00:07:33;;;;;;;13.50;9.25;;;8.00;99.90;;;;;;5075679;28;20029;-88
2023/12/15 00:09:58;;;;;;;11.73;8.05;;;8.00;99.90;;;;;;5066376;28;20040;-89
2023/12/15 00:12:24;;;;;;;12.38;8.35;;;8.00;99.90;;;;;;5056406;28;20030;-90
2023/12/15 00:14:50;;;;;;;13.00;7.28;;;8.00;99.90;;;;;;5060760;28;20039;-89
2023/12/15 00:17:16;;;;;;;11.60;7.38;;;7.90;99.90;;;;;;5054740;28;20028;-89
2023/12/15 00:19:42;;;;;;;8.80;6.50;;;8.00;99.90;;;;;;5053756;28;20024;-90
2023/12/15 00:22:08;;;;;;;11.35;7.63;;;8.00;99.90;;;;;;5057524;28;20033;-89
2023/12/15 00:24:34;;;;;;;11.60;6.97;;;8.00;99.90;;;;;;5056084;28;20039;-89
2023/12/15 00:27:00;;;;;;;9.68;7.10;;;8.00;99.90;;;;;;5038660;28;20055;-90
2023/12/15 00:29:26;;;;;;;12.57;7.72;;;8.00;99.90;;;;;;5038102;28;20055;-90
2023/12/15 00:31:51;;;;;;;11.48;7.97;;;8.00;99.90;;;;;;5059587;28;20060;-89
2023/12/15 00:34:17;;;;;;;14.18;8.52;;;8.00;99.90;;;;;;5054481;28;20021;-90
2023/12/15 00:36:43;;;;;;;12.52;7.90;;;8.10;99.90;;;;;;5042458;28;20021;-90
2023/12/15 00:39:08;;;;;;;10.73;7.45;;;8.00;99.90;;;;;;5050029;28;20466;-90
2023/12/15 00:41:34;;;;;;;11.25;7.68;;;8.00;99.90;;;;;;5032953;28;20038;-90
2023/12/15 00:44:06;;;;;;;10.93;7.50;;;8.10;99.90;;;;;;5044210;28;20060;-89
2023/12/15 00:46:34;;;;;;;11.35;8.57;;;8.10;99.90;;;;;;5054015;28;20036;-89
2023/12/15 00:49:00;;;;;;;15.90;9.15;;;8.10;99.90;;;;;;5037297;28;20032;-90
2023/12/15 00:51:26;;;;;;;14.50;9.10;;;8.10;99.90;;;;;;5036366;28;20040;-90
2023/12/15 00:53:51;;;;;;;13.82;9.10;;;8.00;99.90;;;;;;5053712;28;20108;-87
2023/12/15 00:56:17;;;;;;;15.57;9.68;;;8.10;99.90;;;;;;5053912;28;20489;-90
2023/12/15 00:58:42;;;;;;;14.13;9.80;;;8.10;99.90;;;;;;5054011;28;20112;-89
2023/12/15 01:01:08;;;;;;;14.70;10.40;;;8.10;99.90;;;;;;5039682;28;20037;-90
2023/12/15 01:03:34;;;;;;;14.32;10.60;;;8.10;99.90;;;;;;5073807;28;20108;-86
2023/12/15 01:05:59;;;;;;;17.02;11.23;;;8.10;99.90;;;;;;5060133;28;20024;-90
2023/12/15 01:08:25;;;;;;;16.13;11.85;;;8.10;99.90;;;;;;5052550;28;20029;-90
2023/12/15 01:10:51;;;;;;;19.45;12.43;;;8.10;99.90;;;;;;5066464;28;20104;-90
2023/12/15 01:13:16;;;;;;;16.60;11.32;;;8.20;99.90;;;;;;5053216;28;20033;-89
2023/12/15 01:15:42;;;;;;;15.65;11.32;;;8.10;99.90;;;;;;5022121;28;20030;-90
2023/12/15 01:18:08;;;;;;;16.65;12.52;;;8.10;99.90;;;;;;5053048;28;20071;-90
2023/12/15 01:20:33;;;;;;;14.65;11.77;;;8.10;99.90;;;;;;5078803;28;20111;-90
2023/12/15 01:22:59;;;;;;;16.20;11.60;;;8.10;99.90;;;;;;5056030;28;20122;-89
2023/12/15 01:25:25;;;;;;;21.00;13.65;;;8.10;99.90;;;;;;5041011;28;20096;-90
2023/12/15 01:27:51;;;;;;;16.85;13.27;;;8.20;99.90;;;;;;5040319;28;20033;-90
2023/12/15 01:30:16;;;;;;;19.83;12.73;;;8.20;99.90;;;;;;5058096;28;20036;-89
2023/12/15 01:32:42;;;;;;;19.50;13.60;;;8.10;99.90;;;;;;5040929;28;20037;-89
2023/12/15 01:35:08;;;;;;;19.00;14.20;;;8.20;99.90;;;;;;5042982;28;20128;-89
2023/12/15 01:37:34;;;;;;;21.20;15.07;;;8.20;99.90;;;;;;5040894;28;20079;-90
2023/12/15 01:40:02;;;;;;;19.63;15.07;;;8.20;99.90;;;;;;5073722;28;20040;-89
2023/12/15 01:42:28;;;;;;;20.77;15.68;;;8.20;99.90;;;;;;5040700;28;20040;-88
2023/12/15 01:44:54;;;;;;;20.27;15.90;;;8.10;99.90;;;;;;5038454;28;20389;-88
2023/12/15 01:47:21;;;;;;;20.35;16.80;;;8.20;99.90;;;;;;5061090;28;20040;-89
2023/12/15 01:49:47;;;;;;;24.30;17.73;;;8.20;99.90;;;;;;5059531;28;20024;-88
2023/12/15 01:52:13;;;;;;;22.35;16.77;;;8.20;99.90;;;;;;5057167;28;20025;-88
2023/12/15 01:54:42;;;;;;;26.38;17.58;;;8.20;99.90;;;;;;5039530;28;20387;-89
2023/12/15 01:57:08;;;;;;;26.30;19.15;;;8.20;99.90;;;;;;5044697;28;20468;-88
2023/12/15 01:59:49;;;;;;;27.50;20.33;;;8.20;99.90;;;;;;5057174;28;20028;-89
2023/12/15 02:02:15;;;;;;;29.65;19.27;;;8.30;99.90;;;;;;5056103;28;20061;-88
2023/12/15 02:04:41;;;;;;;29.15;20.00;;;8.30;99.90;;;;;;5056549;28;20470;-88
2023/12/15 02:07:07;;;;;;;25.42;19.35;;;8.30;99.90;;;;;;5040902;28;20056;-89
2023/12/15 02:09:33;;;;;;;26.65;19.08;;;8.20;99.90;;;;;;5057026;28;20039;-89
2023/12/15 02:11:59;;;;;;;24.20;19.48;;;8.30;99.90;;;;;;5036505;28;20049;-90
2023/12/15 02:14:25;;;;;;;28.27;20.27;;;8.30;99.90;;;;;;5089712;28;20043;-89
2023/12/15 02:16:50;;;;;;;29.85;19.95;;;8.30;99.90;;;;;;5035750;28;20458;-90
2023/12/15 02:19:16;;;;;;;29.00;20.23;;;8.30;99.90;;;;;;5043867;28;20034;-90
2023/12/15 02:21:42;;;;;;;26.08;19.90;;;8.30;99.90;;;;;;5039320;28;20040;-89
2023/12/15 02:24:08;;;;;;;32.25;20.52;;;8.30;99.90;;;;;;5056521;28;20079;-89
2023/12/15 02:26:33;;;;;;;30.08;21.98;;;8.30;99.90;;;;;;5062601;28;20056;-89
2023/12/15 02:28:59;;;;;;;29.02;21.45;;;8.30;99.90;;;;;;5061106;28;20036;-89
2023/12/15 02:31:25;;;;;;;28.67;21.13;;;8.30;99.90;;;;;;5069303;28;20472;-90
2023/12/15 02:33:53;;;;;;;31.42;22.30;;;8.40;99.90;;;;;;5074953;28;20040;-90
2023/12/15 02:36:22;;;;;;;30.90;22.88;;;8.40;99.90;;;;;;5070505;28;20104;-89
2023/12/15 02:38:48;;;;;;;31.58;22.30;;;8.40;99.90;;;;;;5069385;28;20037;-89
2023/12/15 02:41:14;;;;;;;31.95;22.42;;;8.40;99.90;;;;;;5070606;28;20044;-90
2023/12/15 02:43:39;;;;;;;33.60;23.17;;;8.40;99.90;;;;;;5063238;28;20059;-89
2023/12/15 02:46:06;;;;;;;31.80;22.80;;;8.40;99.90;;;;;;5034358;28;20120;-90
2023/12/15 02:48:33;;;;;;;33.15;22.88;;;8.40;99.90;;;;;;5033398;28;20032;-89
2023/12/15 02:50:59;;;;;;;36.95;23.38;;;8.40;99.90;;;;;;5073065;28;20427;-89
2023/12/15 02:53:24;;;;;;;34.95;22.77;;;8.50;99.90;;;;;;5055469;28;20033;-89
2023/12/15 02:55:50;;;;;;;34.72;22.52;;;8.50;99.90;;;;;;5060150;28;20025;-89
2023/12/15 02:58:17;;;;;;;34.85;23.35;;;8.50;99.90;;;;;;5054492;28;20033;-88
2023/12/15 03:00:43;;;;;;;34.80;22.40;;;8.50;99.90;;;;;;5052483;28;20035;-90
2023/12/15 03:03:08;;;;;;;32.45;22.77;;;8.50;99.90;;;;;;5045777;28;20052;-90
2023/12/15 03:05:35;;;;;;;37.33;24.15;;;8.50;99.90;;;;;;5055501;28;20029;-88
2023/12/15 03:08:01;;;;;;;38.55;24.25;;;8.50;99.90;;;;;;5060652;28;20078;-90
2023/12/15 03:10:27;;;;;;;32.97;23.35;;;8.50;99.90;;;;;;5037902;28;20032;-89
2023/12/15 03:12:52;;;;;;;35.30;24.67;;;8.50;99.90;;;;;;5057842;28;20033;-91
2023/12/15 03:15:18;;;;;;;38.30;23.88;;;8.50;99.90;;;;;;5054664;28;20131;-89
2023/12/15 03:17:44;;;;;;;34.20;23.70;;;8.50;99.90;;;;;;5056676;28;20080;-90
2023/12/15 03:20:10;;;;;;;37.15;25.20;;;8.60;99.90;;;;;;5054326;28;20068;-90
2023/12/15 03:22:37;;;;;;;38.92;23.88;;;8.60;99.90;;;;;;5071279;28;20064;-89
2023/12/15 03:25:05;;;;;;;34.92;23.85;;;8.60;99.90;;;;;;5054688;28;20362;-90
2023/12/15 03:27:31;;;;;;;37.92;23.13;;;8.60;99.90;;;;;;5072002;28;20039;-89
2023/12/15 03:29:56;;;;;;;40.22;24.38;;;8.60;99.90;;;;;;5055192;28;20028;-89
2023/12/15 03:32:22;;;;;;;44.08;26.55;;;8.60;99.90;;;;;;5051869;28;20041;-89
2023/12/15 03:34:48;;;;;;;41.63;25.05;;;8.60;99.90;;;;;;5056115;28;20388;-89
2023/12/15 03:37:14;;;;;;;34.33;23.50;;;8.60;99.90;;;;;;5041535;28;20037;-89
2023/12/15 03:39:40;;;;;;;37.30;24.38;;;8.60;99.90;;;;;;5055612;28;20094;-89
2023/12/15 03:42:07;;;;;;;41.67;26.10;;;8.60;99.90;;;;;;5054218;28;20040;-91
2023/12/15 03:44:39;;;;;;;39.58;25.30;;;8.60;99.90;;;;;;5040249;28;20021;-89
2023/12/15 03:47:08;;;;;;;40.78;24.50;;;8.70;99.90;;;;;;5054798;28;20028;-88
2023/12/15 03:49:34;;;;;;;40.50;25.05;;;8.60;99.90;;;;;;5054618;28;20040;-89
2023/12/15 03:52:00;;;;;;;40.78;25.17;;;8.70;99.90;;;;;;5044744;28;20029;-90
2023/12/15 03:54:26;;;;;;;45.63;27.20;;;8.70;99.90;;;;;;5035007;28;20036;-90
2023/12/15 03:56:56;;;;;;;37.75;24.80;;;8.70;99.90;;;;;;5039187;28;20033;-90
2023/12/15 03:59:22;;;;;;;39.15;24.98;;;8.60;99.90;;;;;;5073255;28;20001;-88
2023/12/15 04:01:48;;;;;;;45.22;27.30;;;8.70;99.90;;;;;;5061129;28;20043;-89
2023/12/15 04:04:14;;;;;;;44.17;27.10;;;8.70;99.90;;;;;;5047994;28;20041;-90
2023/12/15 04:06:39;;;;;;;43.28;26.98;;;8.60;99.90;;;;;;5072621;28;20069;-89
2023/12/15 04:09:05;;;;;;;43.47;26.52;;;8.70;99.90;;;;;;5053358;28;20029;-89
2023/12/15 04:11:31;;;;;;;40.15;26.20;;;8.70;99.90;;;;;;5022904;28;20026;-90
2023/12/15 04:13:56;;;;;;;43.65;27.52;;;8.70;99.90;;;;;;5052657;28;20025;-87
2023/12/15 04:16:22;;;;;;;37.28;24.50;;;8.70;99.90;;;;;;5046770;28;20033;-89
2023/12/15 04:18:48;;;;;;;46.75;27.83;;;8.70;99.90;;;;;;5035100;28;20484;-89
2023/12/15 04:21:13;;;;;;;43.70;28.23;;;8.70;99.90;;;;;;5035139;28;20118;-89
2023/12/15 04:23:39;;;;;;;45.97;28.85;;;8.70;99.90;;;;;;5056801;28;20037;-90
2023/12/15 04:26:05;;;;;;;44.75;27.23;;;8.70;99.90;;;;;;5053606;28;20525;-90
2023/12/15 04:28:30;;;;;;;43.22;26.92;;;8.70;99.90;;;;;;5056371;28;20023;-88
2023/12/15 04:30:56;;;;;;;38.08;25.90;;;8.70;99.90;;;;;;5034362;28;20457;-89
2023/12/15 04:33:22;;;;;;;47.85;27.05;;;8.80;99.90;;;;;;5052863;28;20029;-89
2023/12/15 04:35:47;;;;;;;40.15;26.65;;;8.70;99.90;;;;;;5068145;28;20457;-89
2023/12/15 04:38:13;;;;;;;48.97;28.20;;;8.80;99.90;;;;;;5037074;28;20540;-89
2023/12/15 04:40:39;;;;;;;44.53;26.58;;;8.80;99.90;;;;;;5054579;28;20029;-90
2023/12/15 04:43:05;;;;;;;39.90;26.95;;;8.80;99.90;;;;;;5037323;28;20388;-89
2023/12/15 04:45:30;;;;;;;41.03;27.08;;;8.80;99.90;;;;;;5053003;28;20445;-90
2023/12/15 04:47:56;;;;;;;45.60;28.90;;;8.80;99.90;;;;;;5054648;28;20025;-91
2023/12/15 04:50:22;;;;;;;40.47;27.20;;;8.80;99.90;;;;;;5053896;28;20028;-90
2023/12/15 04:52:47;;;;;;;43.83;27.65;;;8.90;99.90;;;;;;5054088;28;20481;-90
2023/12/15 04:55:16;;;;;;;45.28;28.17;;;8.90;99.90;;;;;;5033299;28;20061;-90
2023/12/15 04:57:41;;;;;;;43.97;27.40;;;8.80;99.90;;;;;;5056346;28;20045;-88
2023/12/15 05:00:08;;;;;;;46.38;27.60;;;8.80;99.90;;;;;;5033795;28;20122;-89
2023/12/15 05:02:35;;;;;;;45.50;28.73;;;8.80;99.90;;;;;;5041752;28;20053;-90
2023/12/15 05:05:00;;;;;;;47.25;28.52;;;8.80;99.90;;;;;;5053709;28;20036;-89
2023/12/15 05:07:26;;;;;;;45.05;27.48;;;8.80;99.90;;;;;;5053709;28;20017;-90
2023/12/15 05:09:52;;;;;;;46.92;29.63;;;8.80;99.90;;;;;;5056100;28;20103;-89
2023/12/15 05:12:27;;;;;;;;;;;;;;;;;;;;;
2023/12/15 05:14:53;;;;;;;43.03;28.23;;;8.80;99.90;;;;;;5054399;28;20034;-87
2023/12/15 05:17:19;;;;;;;43.42;28.08;;;8.80;99.90;;;;;;5052384;28;20108;-89
2023/12/15 05:19:45;;;;;;;48.75;28.98;;;8.80;99.90;;;;;;5054966;28;20453;-90
2023/12/15 05:22:10;;;;;;;45.25;28.05;;;8.80;99.90;;;;;;5037808;28;20071;-87
2023/12/15 05:24:36;;;;;;;43.97;28.65;;;8.80;99.90;;;;;;5085605;28;20125;-88
2023/12/15 05:27:04;;;;;;;42.47;27.73;;;8.90;99.90;;;;;;5087452;28;20116;-89
2023/12/15 05:29:31;;;;;;;43.05;28.50;;;8.90;99.90;;;;;;5061304;28;20060;-89
2023/12/15 05:31:57;;;;;;;40.58;26.90;;;8.90;99.90;;;;;;5053174;28;20017;-89
2023/12/15 05:34:22;;;;;;;40.20;25.25;;;8.90;99.90;;;;;;5057633;28;20032;-89
2023/12/15 05:36:48;;;;;;;43.67;27.13;;;8.90;99.90;;;;;;5057861;28;20029;-88
2023/12/15 05:39:14;;;;;;;44.20;27.90;;;8.90;99.90;;;;;;5052829;28;20029;-88
2023/12/15 05:41:43;;;;;;;41.33;26.55;;;8.90;99.90;;;;;;5054272;28;20107;-88
2023/12/15 05:44:11;;;;;;;40.75;27.02;;;8.90;99.90;;;;;;5035676;28;20037;-90
2023/12/15 05:46:44;;;;;;;38.60;25.38;;;9.00;99.90;;;;;;5058443;28;20043;-90
2023/12/15 05:49:10;;;;;;;36.08;24.83;;;9.00;99.90;;;;;;5038825;28;20233;-89
2023/12/15 05:51:37;;;;;;;37.83;25.70;;;9.00;99.90;;;;;;5051010;28;20032;-90
2023/12/15 05:54:06;;;;;;;44.22;26.15;;;9.00;99.90;;;;;;5040533;28;20033;-91
2023/12/15 05:56:36;;;;;;;37.08;26.25;;;9.00;99.90;;;;;;5049637;28;20021;-90
2023/12/15 05:59:05;;;;;;;38.90;26.42;;;9.00;99.90;;;;;;5037953;28;20040;-87
2023/12/15 06:01:33;;;;;;;41.63;26.27;;;9.00;99.90;;;;;;5043810;28;20505;-91
2023/12/15 06:04:08;;;;;;;36.70;24.83;;;9.00;99.90;;;;;;5035678;28;20109;-87
2023/12/15 06:06:36;;;;;;;39.08;25.92;;;9.00;99.90;;;;;;5063155;28;20067;-88
2023/12/15 06:09:10;;;;;;;38.42;25.70;;;9.00;99.90;;;;;;5054797;28;20032;-89
2023/12/15 06:11:42;;;;;;;41.97;27.40;;;9.00;99.90;;;;;;5059380;28;20082;-89
2023/12/15 06:14:09;;;;;;;37.20;25.73;;;9.10;99.90;;;;;;5054433;28;20033;-89
2023/12/15 06:16:37;;;;;;;39.42;26.70;;;9.00;99.90;;;;;;5055378;28;20071;-89
2023/12/15 06:19:08;;;;;;;39.47;26.13;;;9.00;99.90;;;;;;5037947;28;20076;-91
2023/12/15 06:21:34;;;;;;;43.50;28.25;;;9.10;99.90;;;;;;5079545;28;20051;-90
2023/12/15 06:24:09;;;;;;;39.70;26.30;;;9.10;99.90;;;;;;5063599;28;20024;-90
2023/12/15 06:26:37;;;;;;;43.47;25.20;;;9.10;99.90;;;;;;5056585;28;20028;-90
2023/12/15 06:29:03;;;;;;;38.75;25.45;;;9.10;99.90;;;;;;5057222;28;20072;-91
2023/12/15 06:31:31;;;;;;;40.72;25.02;;;9.00;99.90;;;;;;5056462;28;20427;-88
2023/12/15 06:34:07;;;;;;;39.78;26.05;;;9.00;99.90;;;;;;5057501;28;20056;-90
2023/12/15 06:36:38;;;;;;;40.10;25.63;;;9.10;99.90;;;;;;5040225;28;20078;-90
2023/12/15 06:39:03;;;;;;;35.67;23.85;;;9.10;99.90;;;;;;5056862;28;20040;-92
2023/12/15 06:41:32;;;;;;;41.72;26.75;;;9.10;99.90;;;;;;5043240;28;20037;-91
2023/12/15 06:43:59;;;;;;;41.38;24.67;;;9.10;99.90;;;;;;5055708;28;20540;-89
2023/12/15 06:46:25;;;;;;;39.83;25.90;;;9.10;99.90;;;;;;5039255;28;20036;-89
2023/12/15 06:48:51;;;;;;;38.10;24.65;;;9.10;99.90;;;;;;5040525;28;20453;-93
2023/12/15 06:51:17;;;;;;;38.13;25.38;;;9.10;99.90;;;;;;5055845;28;20029;-90
2023/12/15 06:53:46;;;;;;;38.15;25.00;;;9.10;99.90;;;;;;5064249;28;20040;-88
2023/12/15 06:56:13;;;;;;;39.20;25.63;;;9.10;99.90;;;;;;5053390;28;20022;-89
2023/12/15 06:58:39;;;;;;;39.60;26.00;;;9.10;99.90;;;;;;5071728;28;20016;-90
2023/12/15 07:01:15;;;;;;;;;;;;;;;;;;;;;
2023/12/15 07:03:41;;;;;;;40.75;25.38;;;9.10;99.90;;;;;;5069280;28;20075;-91
2023/12/15 07:06:07;;;;;;;37.78;24.63;;;9.10;99.90;;;;;;5046093;28;20025;-91
2023/12/15 07:08:37;;;;;;;41.28;26.60;;;9.10;99.90;;;;;;5055109;28;20024;-92
2023/12/15 07:11:05;;;;;;;40.17;25.73;;;9.10;99.90;;;;;;5056196;28;20017;-92
2023/12/15 07:13:31;;;;;;;39.30;24.77;;;9.10;99.90;;;;;;5040927;28;20032;-90
2023/12/15 07:15:57;;;;;;;37.65;25.10;;;9.10;99.90;;;;;;5065736;28;20036;-91
2023/12/15 07:18:26;;;;;;;39.30;23.48;;;9.10;99.90;;;;;;5075772;28;20059;-90
2023/12/15 07:20:54;;;;;;;43.08;25.90;;;9.10;99.90;;;;;;5066357;28;20091;-90
2023/12/15 07:23:20;;;;;;;40.13;25.90;;;9.20;99.90;;;;;;5039215;28;20039;-90
2023/12/15 07:25:48;;;;;;;40.75;25.35;;;9.10;99.90;;;;;;5052140;28;20029;-90
2023/12/15 07:28:14;;;;;;;39.85;24.52;;;9.10;99.90;;;;;;5056073;28;20029;-90
2023/12/15 07:30:45;;;;;;;41.85;24.88;;;9.20;99.90;;;;;;5055055;28;20025;-90
2023/12/15 07:33:11;;;;;;;34.63;23.35;;;9.20;99.90;;;;;;5060552;28;20036;-91
2023/12/15 07:35:56;;;;;;;36.92;24.33;;;9.10;99.90;;;;;;5075360;28;20017;-90
2023/12/15 07:38:22;;;;;;;38.45;24.52;;;9.10;99.90;;;;;;5049583;28;20072;-92
2023/12/15 07:40:53;;;;;;;36.55;24.20;;;9.10;99.90;;;;;;5055008;28;20033;-92
2023/12/15 07:43:19;;;;;;;;;;;9.10;99.90;;;;;;5055276;28;20041;-87
2023/12/15 07:45:50;;;;;;;40.20;24.17;;;9.10;99.90;;;;;;5060091;28;20326;-91
2023/12/15 07:48:16;;;;;;;38.60;24.50;;;9.20;99.90;;;;;;5037196;28;20074;-90
2023/12/15 07:50:42;;;;;;;39.60;25.08;;;9.10;99.90;;;;;;5054654;28;20024;-89
2023/12/15 07:53:11;;;;;;;35.40;23.33;;;9.10;99.90;;;;;;5054960;28;20040;-91
2023/12/15 07:55:39;;;;;;;41.33;26.00;;;9.10;99.90;;;;;;5054304;28;20028;-90
2023/12/15 07:58:22;;;;;;;37.97;24.15;;;9.10;99.90;;;;;;5054897;28;20162;-90
2023/12/15 08:00:51;;;;;;;38.65;24.30;;;9.10;99.90;;;;;;5054138;28;20044;-92
2023/12/15 08:03:21;;;;;;;38.30;25.05;;;9.10;99.90;;;;;;5055548;28;20049;-91
2023/12/15 08:05:47;;;;;;;36.78;24.33;;;9.20;99.90;;;;;;5071837;28;20032;-91
2023/12/15 08:08:13;;;;;;;36.55;24.33;;;9.20;99.90;;;;;;5055789;28;20017;-91
2023/12/15 08:10:41;;;;;;;35.83;24.83;;;9.20;99.90;;;;;;5053972;28;20024;-90
2023/12/15 08:13:12;;;;;;;36.30;23.92;;;9.20;99.90;;;;;;5038128;28;20396;-90
2023/12/15 08:15:41;;;;;;;36.58;25.02;;;9.20;99.90;;;;;;5067896;28;20417;-90
2023/12/15 08:18:17;;;;;;;41.05;24.83;;;9.20;99.90;;;;;;5070413;28;20033;-90
2023/12/15 08:20:45;;;;;;;34.70;24.50;;;9.20;99.90;;;;;;5039200;28;20431;-91
2023/12/15 08:23:13;;;;;;;35.33;23.85;;;9.20;99.90;;;;;;5057562;28;20531;-89
2023/12/15 08:25:39;;;;;;;37.33;25.02;;;9.20;99.90;;;;;;5066745;28;20029;-89
2023/12/15 08:28:05;;;;;;;35.58;24.00;;;9.20;99.90;;;;;;5075774;28;20068;-89
2023/12/15 08:30:33;;;;;;;34.63;23.80;;;9.20;99.90;;;;;;5072281;28;20025;-90
2023/12/15 08:33:01;;;;;;;39.33;24.30;;;9.30;99.90;;;;;;5069332;28;20448;-91
2023/12/15 08:35:27;;;;;;;37.58;24.42;;;9.30;99.90;;;;;;5058548;28;20087;-90
2023/12/15 08:37:54;;;;;;;32.00;22.25;;;9.30;99.90;;;;;;5054161;28;20028;-89
2023/12/15 08:40:20;;;;;;;33.80;22.40;;;9.30;99.90;;;;;;5054208;28;20033;-88
2023/12/15 08:42:46;;;;;;;35.92;22.52;;;9.30;99.90;;;;;;5067371;28;20013;-91
2023/12/15 08:45:18;;;;;;;32.67;22.25;;;9.40;99.90;;;;;;5053831;28;20086;-91
2023/12/15 08:47:46;;;;;;;;;;;9.30;99.90;;;;;;5049739;28;20067;-89
2023/12/15 08:50:13;;;;;;;33.28;21.92;;;9.40;99.90;;;;;;5059678;28;20303;-89
2023/12/15 08:52:40;;;;;;;32.38;22.25;;;9.40;99.90;;;;;;5053787;28;20465;-90
2023/12/15 08:55:08;;;;;;;32.17;21.95;;;9.40;99.90;;;;;;5052554;28;20024;-89
2023/12/15 08:57:47;;;;;;;29.23;20.92;;;9.40;99.90;;;;;;5033681;28;20083;-90
2023/12/15 09:00:13;;;;;;;32.03;20.45;;;9.40;99.90;;;;;;5050802;28;20029;-89
2023/12/15 09:02:39;;;;;;;30.17;21.27;;;9.40;99.90;;;;;;5050065;28;20050;-90
2023/12/15 09:05:05;;;;;;;31.27;21.48;;;9.40;99.90;;;;;;5054333;28;20032;-90
2023/12/15 09:07:31;;;;;;;29.52;20.65;;;9.40;99.90;;;;;;5017249;28;20052;-89
2023/12/15 09:09:59;;;;;;;30.20;20.17;;;9.40;99.90;;;;;;5043221;28;20021;-91
2023/12/15 09:12:28;;;;;;;25.35;19.52;;;9.40;99.90;;;;;;5053604;28;20090;-89
2023/12/15 09:14:56;;;;;;;26.30;19.65;;;9.40;99.90;;;;;;5053289;28;20546;-90
2023/12/15 09:17:22;;;;;;;29.45;19.98;;;9.40;99.90;;;;;;5054990;28;20127;-89
2023/12/15 09:19:47;;;;;;;30.58;19.58;;;9.40;99.90;;;;;;5053217;28;20044;-89
2023/12/15 09:22:23;;;;;;;28.40;19.02;;;9.40;99.90;;;;;;5054376;28;20120;-90
2023/12/15 09:24:53;;;;;;;26.60;18.15;;;9.50;99.90;;;;;;5053657;28;20021;-89
2023/12/15 09:27:19;;;;;;;25.83;18.13;;;9.50;99.90;;;;;;5053647;28;20484;-90
2023/12/15 09:29:44;;;;;;;25.95;18.27;;;9.60;99.90;;;;;;5052108;28;20029;-89
2023/12/15 09:32:12;;;;;;;27.05;18.10;;;9.60;99.90;;;;;;5053781;28;20036;-90
2023/12/15 09:34:43;;;;;;;27.67;18.52;;;9.60;99.90;;;;;;5054823;28;20102;-90
2023/12/15 09:37:12;;;;;;;26.92;18.65;;;9.50;99.90;;;;;;5067111;28;20054;-89
2023/12/15 09:39:40;;;;;;;22.60;16.50;;;9.60;99.90;;;;;;5061650;28;20029;-92
2023/12/15 09:42:06;;;;;;;25.80;17.75;;;9.60;99.90;;;;;;5064930;28;20040;-91
2023/12/15 09:44:32;;;;;;;26.35;17.80;;;9.60;99.90;;;;;;5064867;28;20025;-89
2023/12/15 09:47:02;;;;;;;25.85;16.90;;;9.60;99.90;;;;;;5058724;28;20013;-90
2023/12/15 09:49:32;;;;;;;25.17;17.05;;;9.70;99.90;;;;;;5058495;28;20021;-90
2023/12/15 09:52:05;;;;;;;27.30;17.33;;;9.60;99.90;;;;;;5057828;28;20029;-91
2023/12/15 09:54:31;;;;;;;23.88;17.05;;;9.70;99.90;;;;;;5062874;28;20088;-90
2023/12/15 09:57:05;;;;;;;23.60;16.02;;;9.70;99.90;;;;;;5089454;28;20013;-89
2023/12/15 09:59:42;;;;;;;23.83;17.48;;;9.70;99.90;;;;;;5077787;28;20107;-91
2023/12/15 10:02:10;;;;;;;29.08;16.90;;;9.70;99.90;;;;;;5072850;28;20029;-91
2023/12/15 10:04:38;;;;;;;26.42;17.83;;;9.70;99.90;;;;;;5074616;28;20472;-90
2023/12/15 10:07:04;;;;;;;26.45;15.93;;;9.80;99.90;;;;;;5060982;28;20017;-89
2023/12/15 10:09:30;;;;;;;25.33;16.05;;;9.80;99.90;;;;;;5045092;28;20090;-90
2023/12/15 10:11:57;;;;;;;25.80;16.73;;;9.80;99.90;;;;;;5060246;28;20036;-89
2023/12/15 10:14:23;;;;;;;24.05;16.75;;;9.80;99.90;;;;;;5056717;28;20037;-90
2023/12/15 10:16:50;;;;;;;21.38;15.48;;;9.80;99.90;;;;;;5040254;28;20059;-92
2023/12/15 10:19:23;;;;;;;22.50;16.10;;;9.90;99.90;;;;;;5056597;28;20468;-90
2023/12/15 10:21:49;;;;;;;26.30;18.83;;;9.90;99.90;;;;;;5057130;28;20477;-90
2023/12/15 10:24:22;;;;;;;30.20;18.58;;;9.90;99.90;;;;;;5059781;28;20036;-90
2023/12/15 10:26:51;;;;;;;29.33;17.98;;;9.90;99.90;;;;;;5056563;28;20017;-91
2023/12/15 10:29:25;;;;;;;24.98;16.77;;;9.90;99.90;;;;;;5056448;28;20024;-90
2023/12/15 10:31:51;;;;;;;26.90;16.80;;;9.90;99.90;;;;;;5056299;28;20033;-91
2023/12/15 10:34:18;;;;;;;22.02;16.05;;;10.00;99.90;;;;;;5057572;28;20032;-90
2023/12/15 10:36:49;;;;;;;22.52;15.68;;;10.00;99.90;;;;;;5056310;28;20518;-90
2023/12/15 10:39:17;;;;;;;24.27;16.15;;;10.10;99.90;;;;;;5047109;28;20035;-90
2023/12/15 10:41:44;;;;;;;21.73;15.23;;;10.10;99.90;;;;;;5055417;28;20029;-91
2023/12/15 10:44:15;;;;;;;25.73;15.50;;;10.10;99.90;;;;;;5037897;28;20469;-90
2023/12/15 10:46:44;;;;;;;22.70;14.35;;;10.10;99.90;;;;;;5054342;28;20024;-91
2023/12/15 10:49:10;;;;;;;27.70;15.20;;;10.00;99.90;;;;;;5109876;28;20537;-90
2023/12/15 10:51:43;;;;;;;22.02;14.95;;;10.10;99.90;;;;;;5062830;28;20029;-92
2023/12/15 10:54:09;;;;;;;19.83;13.50;;;10.10;99.90;;;;;;5055507;28;20434;-90
2023/12/15 10:56:40;;;;;;;21.52;14.50;;;10.10;99.90;;;;;;5055038;28;20078;-91
2023/12/15 10:59:09;;;;;;;21.35;14.10;;;10.10;99.90;;;;;;5055625;28;20112;-90
2023/12/15 11:01:40;;;;;;;21.83;13.30;;;10.10;99.90;;;;;;5072475;28;20032;-89
2023/12/15 11:04:18;;;;;;;18.77;11.90;;;10.10;99.90;;;;;;5055738;28;20056;-90
2023/12/15 11:06:46;;;;;;;20.30;12.50;;;10.10;99.90;;;;;;5055279;28;20032;-91
2023/12/15 11:09:24;;;;;;;19.25;12.55;;;10.10;99.90;;;;;;5056216;28;20033;-90
2023/12/15 11:12:25;;;;;;;19.65;12.52;;;10.20;99.90;;;;;;5055461;28;20028;-92
2023/12/15 11:15:03;;;;;;;18.38;12.15;;;10.20;99.90;;;;;;5056073;28;20029;-91
2023/12/15 11:17:31;;;;;;;19.23;12.63;;;10.20;99.90;;;;;;5055743;28;20028;-90
2023/12/15 11:20:22;;;;;;;22.67;13.00;;;10.20;99.90;;;;;;5062241;28;20020;-91
2023/12/15 11:22:53;;;;;;;23.77;12.27;;;10.20;99.90;;;;;;5072127;28;20041;-91
2023/12/15 11:25:20;;;;;;;22.80;12.70;;;10.30;99.90;;;;;;5067506;28;20025;-90
2023/12/15 11:28:09;;;;;;;20.98;12.48;;;10.30;99.90;;;;;;5078182;28;20021;-90
2023/12/15 11:30:40;;;;;;;22.48;12.85;;;10.30;99.90;;;;;;5074159;28;20032;-90
2023/12/15 11:33:29;;;;;;;18.02;11.13;;;10.30;99.90;;;;;;5077501;28;20038;-91
2023/12/15 11:36:09;;;;;;;20.73;11.32;;;10.30;99.90;;;;;;5080477;28;20033;-91
2023/12/15 11:38:36;;;;;;;18.75;12.43;;;10.30;99.90;;;;;;5075514;28;20021;-92
2023/12/15 11:41:10;;;;;;;18.17;12.23;;;10.30;99.90;;;;;;5062050;28;20071;-90
2023/12/15 11:43:40;;;;;;;18.25;11.73;;;10.30;99.90;;;;;;5049265;28;20108;-90
2023/12/15 11:46:11;;;;;;;21.13;11.80;;;10.30;99.90;;;;;;5054247;28;20461;-90
2023/12/15 11:48:37;;;;;;;19.17;11.00;;;10.40;99.90;;;;;;5055104;28;20021;-92
2023/12/15 11:51:09;;;;;;;17.92;10.68;;;10.40;99.90;;;;;;5053618;28;20028;-90
2023/12/15 11:53:44;;;;;;;22.88;11.40;;;10.40;99.90;;;;;;5038891;28;20032;-91
2023/12/15 11:56:10;;;;;;;17.20;10.70;;;10.50;99.90;;;;;;5054497;28;20115;-91
2023/12/15 11:58:39;;;;;;;20.50;10.73;;;10.50;99.90;;;;;;5054171;28;20480;-91
2023/12/15 12:01:05;;;;;;;17.33;9.95;;;10.50;99.90;;;;;;5053683;28;20384;-92
2023/12/15 12:03:40;;;;;;;19.70;10.60;;;10.50;99.90;;;;;;5037012;28;20071;-92
2023/12/15 12:06:23;;;;;;;22.33;10.98;;;10.50;99.90;;;;;;5055648;28;20024;-91
2023/12/15 12:08:49;;;;;;;19.02;10.02;;;10.60;99.90;;;;;;5038035;28;20477;-91
2023/12/15 12:11:31;;;;;;;16.40;9.88;;;10.60;99.90;;;;;;5053681;28;20051;-90
2023/12/15 12:14:00;;;;;;;17.38;10.10;;;10.60;99.90;;;;;;5055372;28;20461;-92
2023/12/15 12:16:27;;;;;;;14.68;9.75;;;10.50;99.90;;;;;;5057854;28;20039;-89
2023/12/15 12:18:55;;;;;;;14.70;8.85;;;10.60;99.90;;;;;;5041712;28;20035;-92
2023/12/15 12:21:30;;;;;;;18.63;9.55;;;10.60;99.90;;;;;;5087460;28;20056;-90
2023/12/15 12:23:57;;;;;;;16.67;8.63;;;10.60;99.90;;;;;;5057231;28;20521;-91
2023/12/15 12:29:17;;;;;;;19.23;9.68;;;10.70;99.90;;;;;;5060971;28;20029;-92
2023/12/15 12:31:43;;;;;;;14.68;9.10;;;10.70;99.90;;;;;;5052898;28;20381;-91
2023/12/15 12:34:11;;;;;;;14.38;8.75;;;10.70;99.90;;;;;;5054149;28;20025;-91
2023/12/15 12:36:40;;;;;;;18.40;8.73;;;10.70;99.90;;;;;;5054328;28;20017;-91
2023/12/15 12:39:06;;;;;;;16.73;8.98;;;10.70;99.90;;;;;;5053935;28;20469;-92
2023/12/15 12:41:34;;;;;;;17.17;9.32;;;10.70;99.90;;;;;;5059789;28;20033;-92
2023/12/15 12:44:00;;;;;;;18.08;9.30;;;10.70;99.90;;;;;;5054658;28;20497;-91
2023/12/15 12:46:28;;;;;;;18.30;8.85;;;10.70;99.90;;;;;;5054505;28;20032;-91